sensor_id;sensor_type;location;lat;lon;timestamp;temperature;humidity
33793;DHT22;20105;48.764;9.178;2022-07-10T00:01:05;17.00;99.90
33793;DHT22;20105;48.764;9.178;2022-07-10T00:03:31;17.00;99.90
33793;DHT22;20105;48.764;9.178;2022-07-10T00:05:56;17.00;99.90
33793;DHT22;20105;48.764;9.178;2022-07-10T00:08:22;17.00;99.90
33793;DHT22;20105;48.764;9.178;2022-07-10T00:10:47;17.00;99.90
33793;DHT22;20105;48.764;9.178;2022-07-10T00:13:13;17.10;99.90
33793;DHT22;20105;48.764;9.178;2022-07-10T00:15:38;17.10;99.90
33793;DHT22;20105;48.764;9.178;2022-07-10T00:18:04;17.10;99.90
33793;DHT22;20105;48.764;9.178;2022-07-10T00:20:30;17.10;99.90
33793;DHT22;20105;48.764;9.178;2022-07-10T00:22:56;17.10;99.90
33793;DHT22;20105;48.764;9.178;2022-07-10T00:25:21;17.10;99.90
33793;DHT22;20105;48.764;9.178;2022-07-10T00:27:47;17.10;99.90
33793;DHT22;20105;48.764;9.178;2022-07-10T00:30:12;17.10;99.90
33793;DHT22;20105;48.764;9.178;2022-07-10T00:32:39;17.20;99.90
33793;DHT22;20105;48.764;9.178;2022-07-10T00:35:05;17.20;99.90
33793;DHT22;20105;48.764;9.178;2022-07-10T00:37:31;17.10;99.90
33793;DHT22;20105;48.764;9.178;2022-07-10T00:39:57;17.10;99.90
33793;DHT22;20105;48.764;9.178;2022-07-10T00:42:22;17.10;99.90
33793;DHT22;20105;48.764;9.178;2022-07-10T00:44:48;17.10;99.90
33793;DHT22;20105;48.764;9.178;2022-07-10T00:47:14;17.10;99.90
33793;DHT22;20105;48.764;9.178;2022-07-10T00:49:43;17.10;99.90
33793;DHT22;20105;48.764;9.178;2022-07-10T00:52:12;17.20;99.90
33793;DHT22;20105;48.764;9.178;2022-07-10T00:54:41;17.20;99.90
33793;DHT22;20105;48.764;9.178;2022-07-10T00:57:08;17.20;99.90
33793;DHT22;20105;48.764;9.178;2022-07-10T00:59:37;17.10;99.90
33793;DHT22;20105;48.764;9.178;2022-07-10T01:02:03;17.00;99.90
33793;DHT22;20105;48.764;9.178;2022-07-10T01:04:30;17.00;99.90
33793;DHT22;20105;48.764;9.178;2022-07-10T01:06:56;17.00;99.90
33793;DHT22;20105;48.764;9.178;2022-07-10T01:09:22;16.90;99.90
33793;DHT22;20105;48.764;9.178;2022-07-10T01:11:47;16.90;99.90
33793;DHT22;20105;48.764;9.178;2022-07-10T01:14:15;16.90;99.90
33793;DHT22;20105;48.764;9.178;2022-07-10T01:16:40;16.80;99.90
33793;DHT22;20105;48.764;9.178;2022-07-10T01:19:06;16.70;99.90
33793;DHT22;20105;48.764;9.178;2022-07-10T01:21:33;16.60;99.90
33793;DHT22;20105;48.764;9.178;2022-07-10T01:24:08;16.60;99.90
33793;DHT22;20105;48.764;9.178;2022-07-10T01:26:35;16.50;99.90
33793;DHT22;20105;48.764;9.178;2022-07-10T01:29:07;16.40;99.90
33793;DHT22;20105;48.764;9.178;2022-07-10T01:31:34;16.30;99.90
33793;DHT22;20105;48.764;9.178;2022-07-10T01:34:01;16.20;99.90
33793;DHT22;20105;48.764;9.178;2022-07-10T01:36:28;16.20;99.90
33793;DHT22;20105;48.764;9.178;2022-07-10T01:38:54;16.20;99.90
33793;DHT22;20105;48.764;9.178;2022-07-10T01:41:21;16.30;99.90
33793;DHT22;20105;48.764;9.178;2022-07-10T01:43:47;16.30;99.90
33793;DHT22;20105;48.764;9.178;2022-07-10T01:46:14;16.30;99.90
33793;DHT22;20105;48.764;9.178;2022-07-10T01:48:40;16.30;99.90
33793;DHT22;20105;48.764;9.178;2022-07-10T01:51:07;16.30;99.90
33793;DHT22;20105;48.764;9.178;2022-07-10T01:53:33;16.30;99.90
33793;DHT22;20105;48.764;9.178;2022-07-10T01:56:00;16.20;99.90
33793;DHT22;20105;48.764;9.178;2022-07-10T01:58:26;16.20;99.90
33793;DHT22;20105;48.764;9.178;2022-07-10T02:00:52;16.10;99.90
33793;DHT22;20105;48.764;9.178;2022-07-10T02:03:17;16.10;99.90
33793;DHT22;20105;48.764;9.178;2022-07-10T02:06:01;16.00;99.90
33793;DHT22;20105;48.764;9.178;2022-07-10T02:08:27;16.00;99.90
33793;DHT22;20105;48.764;9.178;2022-07-10T02:10:52;16.00;99.90
33793;DHT22;20105;48.764;9.178;2022-07-10T02:13:19;16.00;99.90
33793;DHT22;20105;48.764;9.178;2022-07-10T02:15:46;16.00;99.90
33793;DHT22;20105;48.764;9.178;2022-07-10T02:18:13;16.00;99.90
33793;DHT22;20105;48.764;9.178;2022-07-10T02:20:38;16.20;99.90
33793;DHT22;20105;48.764;9.178;2022-07-10T02:23:04;16.20;99.90
33793;DHT22;20105;48.764;9.178;2022-07-10T02:25:29;16.30;99.90
33793;DHT22;20105;48.764;9.178;2022-07-10T02:27:55;16.40;99.90
33793;DHT22;20105;48.764;9.178;2022-07-10T02:30:20;16.40;99.90
33793;DHT22;20105;48.764;9.178;2022-07-10T02:32:46;16.50;99.90
33793;DHT22;20105;48.764;9.178;2022-07-10T02:35:12;16.50;99.90
33793;DHT22;20105;48.764;9.178;2022-07-10T02:37:37;16.50;99.90
33793;DHT22;20105;48.764;9.178;2022-07-10T02:40:03;16.60;99.90
33793;DHT22;20105;48.764;9.178;2022-07-10T02:42:28;16.60;99.90
33793;DHT22;20105;48.764;9.178;2022-07-10T02:44:54;16.60;99.90
33793;DHT22;20105;48.764;9.178;2022-07-10T02:47:20;16.60;99.90
33793;DHT22;20105;48.764;9.178;2022-07-10T02:49:45;16.50;99.90
33793;DHT22;20105;48.764;9.178;2022-07-10T02:52:11;16.50;99.90
33793;DHT22;20105;48.764;9.178;2022-07-10T02:54:37;16.50;99.90
33793;DHT22;20105;48.764;9.178;2022-07-10T02:57:04;16.50;99.90
33793;DHT22;20105;48.764;9.178;2022-07-10T02:59:29;16.40;99.90
33793;DHT22;20105;48.764;9.178;2022-07-10T03:01:55;16.40;99.90
33793;DHT22;20105;48.764;9.178;2022-07-10T03:04:20;16.40;99.90
33793;DHT22;20105;48.764;9.178;2022-07-10T03:06:46;16.30;99.90
33793;DHT22;20105;48.764;9.178;2022-07-10T03:09:11;16.40;99.90
33793;DHT22;20105;48.764;9.178;2022-07-10T03:11:37;16.40;99.90
33793;DHT22;20105;48.764;9.178;2022-07-10T03:14:02;16.40;99.90
33793;DHT22;20105;48.764;9.178;2022-07-10T03:16:29;16.40;99.90
33793;DHT22;20105;48.764;9.178;2022-07-10T03:18:54;16.30;99.90
33793;DHT22;20105;48.764;9.178;2022-07-10T03:21:20;16.30;99.90
33793;DHT22;20105;48.764;9.178;2022-07-10T03:23:46;16.40;99.90
33793;DHT22;20105;48.764;9.178;2022-07-10T03:26:11;16.40;99.90
33793;DHT22;20105;48.764;9.178;2022-07-10T03:28:37;16.40;99.90
33793;DHT22;20105;48.764;9.178;2022-07-10T03:31:02;16.40;99.90
33793;DHT22;20105;48.764;9.178;2022-07-10T03:33:28;16.40;99.90
33793;DHT22;20105;48.764;9.178;2022-07-10T03:35:54;16.40;99.90
33793;DHT22;20105;48.764;9.178;2022-07-10T03:38:19;16.40;99.90
33793;DHT22;20105;48.764;9.178;2022-07-10T03:40:45;16.30;99.90
33793;DHT22;20105;48.764;9.178;2022-07-10T03:43:13;16.30;99.90
33793;DHT22;20105;48.764;9.178;2022-07-10T03:45:39;16.30;99.90
33793;DHT22;20105;48.764;9.178;2022-07-10T03:48:04;16.20;99.90
33793;DHT22;20105;48.764;9.178;2022-07-10T03:50:30;16.30;99.90
33793;DHT22;20105;48.764;9.178;2022-07-10T03:52:56;16.30;99.90
33793;DHT22;20105;48.764;9.178;2022-07-10T03:55:21;16.30;99.90
33793;DHT22;20105;48.764;9.178;2022-07-10T03:57:47;16.30;99.90
33793;DHT22;20105;48.764;9.178;2022-07-10T04:00:29;16.20;99.90
33793;DHT22;20105;48.764;9.178;2022-07-10T04:02:59;16.20;99.90
33793;DHT22;20105;48.764;9.178;2022-07-10T04:05:26;16.10;99.90
33793;DHT22;20105;48.764;9.178;2022-07-10T04:07:51;16.20;99.90
33793;DHT22;20105;48.764;9.178;2022-07-10T04:10:17;16.20;99.90
33793;DHT22;20105;48.764;9.178;2022-07-10T04:12:44;16.20;99.90
33793;DHT22;20105;48.764;9.178;2022-07-10T04:15:09;16.20;99.90
33793;DHT22;20105;48.764;9.178;2022-07-10T04:17:35;16.20;99.90
33793;DHT22;20105;48.764;9.178;2022-07-10T04:20:01;16.30;99.90
33793;DHT22;20105;48.764;9.178;2022-07-10T04:22:27;16.30;99.90
33793;DHT22;20105;48.764;9.178;2022-07-10T04:24:53;16.30;99.90
33793;DHT22;20105;48.764;9.178;2022-07-10T04:27:19;16.20;99.90
33793;DHT22;20105;48.764;9.178;2022-07-10T04:29:45;16.20;99.90
33793;DHT22;20105;48.764;9.178;2022-07-10T04:32:10;16.20;99.90
33793;DHT22;20105;48.764;9.178;2022-07-10T04:34:36;16.20;99.90
33793;DHT22;20105;48.764;9.178;2022-07-10T04:37:02;16.10;99.90
33793;DHT22;20105;48.764;9.178;2022-07-10T04:39:28;16.00;99.90
33793;DHT22;20105;48.764;9.178;2022-07-10T04:41:54;16.00;99.90
33793;DHT22;20105;48.764;9.178;2022-07-10T04:44:19;15.90;99.90
33793;DHT22;20105;48.764;9.178;2022-07-10T04:46:45;15.90;99.90
33793;DHT22;20105;48.764;9.178;2022-07-10T04:49:11;15.90;99.90
33793;DHT22;20105;48.764;9.178;2022-07-10T04:51:36;15.80;99.90
33793;DHT22;20105;48.764;9.178;2022-07-10T04:54:02;15.80;99.90
33793;DHT22;20105;48.764;9.178;2022-07-10T04:56:27;15.90;99.90
33793;DHT22;20105;48.764;9.178;2022-07-10T04:58:53;16.00;99.90
33793;DHT22;20105;48.764;9.178;2022-07-10T05:01:19;16.20;99.90
33793;DHT22;20105;48.764;9.178;2022-07-10T05:03:45;16.20;99.90
33793;DHT22;20105;48.764;9.178;2022-07-10T05:06:11;16.20;99.90
33793;DHT22;20105;48.764;9.178;2022-07-10T05:08:36;16.00;99.90
33793;DHT22;20105;48.764;9.178;2022-07-10T05:11:02;16.00;99.90
33793;DHT22;20105;48.764;9.178;2022-07-10T05:13:27;16.00;99.90
33793;DHT22;20105;48.764;9.178;2022-07-10T05:15:53;16.00;99.90
33793;DHT22;20105;48.764;9.178;2022-07-10T05:18:18;16.00;99.90
33793;DHT22;20105;48.764;9.178;2022-07-10T05:20:44;16.10;99.90
33793;DHT22;20105;48.764;9.178;2022-07-10T05:23:10;16.10;99.90
33793;DHT22;20105;48.764;9.178;2022-07-10T05:25:37;16.20;99.90
33793;DHT22;20105;48.764;9.178;2022-07-10T05:28:04;16.30;99.90
33793;DHT22;20105;48.764;9.178;2022-07-10T05:30:30;16.20;99.90
33793;DHT22;20105;48.764;9.178;2022-07-10T05:32:55;16.30;99.90
33793;DHT22;20105;48.764;9.178;2022-07-10T05:35:21;16.40;99.90
33793;DHT22;20105;48.764;9.178;2022-07-10T05:37:46;16.40;99.90
33793;DHT22;20105;48.764;9.178;2022-07-10T05:40:12;16.40;99.90
33793;DHT22;20105;48.764;9.178;2022-07-10T05:42:38;16.40;99.90
33793;DHT22;20105;48.764;9.178;2022-07-10T05:45:03;16.60;99.90
33793;DHT22;20105;48.764;9.178;2022-07-10T05:47:31;16.60;99.90
33793;DHT22;20105;48.764;9.178;2022-07-10T05:49:56;16.60;99.90
33793;DHT22;20105;48.764;9.178;2022-07-10T05:52:22;16.60;99.90
33793;DHT22;20105;48.764;9.178;2022-07-10T05:54:47;16.90;99.90
33793;DHT22;20105;48.764;9.178;2022-07-10T05:57:13;17.10;99.90
33793;DHT22;20105;48.764;9.178;2022-07-10T05:59:39;17.10;99.90
33793;DHT22;20105;48.764;9.178;2022-07-10T06:02:04;17.00;99.90
33793;DHT22;20105;48.764;9.178;2022-07-10T06:04:30;16.90;99.90
33793;DHT22;20105;48.764;9.178;2022-07-10T06:06:56;16.90;99.90
33793;DHT22;20105;48.764;9.178;2022-07-10T06:09:22;16.90;99.90
33793;DHT22;20105;48.764;9.178;2022-07-10T06:11:47;16.80;99.90
33793;DHT22;20105;48.764;9.178;2022-07-10T06:14:14;16.80;99.90
33793;DHT22;20105;48.764;9.178;2022-07-10T06:16:40;16.90;99.90
33793;DHT22;20105;48.764;9.178;2022-07-10T06:19:05;16.80;99.90
33793;DHT22;20105;48.764;9.178;2022-07-10T06:21:31;16.90;99.90
33793;DHT22;20105;48.764;9.178;2022-07-10T06:23:57;17.00;99.90
33793;DHT22;20105;48.764;9.178;2022-07-10T06:26:22;17.10;99.90
33793;DHT22;20105;48.764;9.178;2022-07-10T06:28:48;17.10;99.90
33793;DHT22;20105;48.764;9.178;2022-07-10T06:31:13;17.00;99.90
33793;DHT22;20105;48.764;9.178;2022-07-10T06:33:39;17.00;99.90
33793;DHT22;20105;48.764;9.178;2022-07-10T06:36:05;17.00;99.90
33793;DHT22;20105;48.764;9.178;2022-07-10T06:38:31;17.10;99.90
33793;DHT22;20105;48.764;9.178;2022-07-10T06:40:57;17.20;99.90
33793;DHT22;20105;48.764;9.178;2022-07-10T06:43:22;17.00;99.90
33793;DHT22;20105;48.764;9.178;2022-07-10T06:45:48;16.90;99.90
33793;DHT22;20105;48.764;9.178;2022-07-10T06:48:14;16.70;99.90
33793;DHT22;20105;48.764;9.178;2022-07-10T06:50:40;16.60;99.90
33793;DHT22;20105;48.764;9.178;2022-07-10T06:53:06;16.70;99.90
33793;DHT22;20105;48.764;9.178;2022-07-10T06:55:32;16.70;99.90
33793;DHT22;20105;48.764;9.178;2022-07-10T06:57:58;16.60;99.90
33793;DHT22;20105;48.764;9.178;2022-07-10T07:00:25;16.70;99.90
33793;DHT22;20105;48.764;9.178;2022-07-10T07:02:51;16.90;99.90
33793;DHT22;20105;48.764;9.178;2022-07-10T07:05:16;17.10;99.90
33793;DHT22;20105;48.764;9.178;2022-07-10T07:10:17;17.00;99.90
33793;DHT22;20105;48.764;9.178;2022-07-10T07:12:43;17.00;99.90
33793;DHT22;20105;48.764;9.178;2022-07-10T07:15:11;17.00;99.90
33793;DHT22;20105;48.764;9.178;2022-07-10T07:17:41;17.10;99.90
33793;DHT22;20105;48.764;9.178;2022-07-10T07:20:25;17.30;99.70
33793;DHT22;20105;48.764;9.178;2022-07-10T07:23:10;17.30;98.70
33793;DHT22;20105;48.764;9.178;2022-07-10T07:25:35;16.90;99.90
33793;DHT22;20105;48.764;9.178;2022-07-10T07:28:02;16.90;99.90
33793;DHT22;20105;48.764;9.178;2022-07-10T07:30:28;16.90;99.90
33793;DHT22;20105;48.764;9.178;2022-07-10T07:32:54;16.90;99.90
33793;DHT22;20105;48.764;9.178;2022-07-10T07:35:19;16.80;99.90
33793;DHT22;20105;48.764;9.178;2022-07-10T07:37:48;16.90;99.90
33793;DHT22;20105;48.764;9.178;2022-07-10T07:40:15;17.10;99.60
33793;DHT22;20105;48.764;9.178;2022-07-10T07:42:42;17.20;99.00
33793;DHT22;20105;48.764;9.178;2022-07-10T07:45:09;17.10;99.50
33793;DHT22;20105;48.764;9.178;2022-07-10T07:47:47;17.20;98.60
33793;DHT22;20105;48.764;9.178;2022-07-10T07:50:14;17.30;98.70
33793;DHT22;20105;48.764;9.178;2022-07-10T07:52:40;17.40;97.90
33793;DHT22;20105;48.764;9.178;2022-07-10T07:55:06;17.50;98.30
33793;DHT22;20105;48.764;9.178;2022-07-10T07:57:32;17.50;97.90
33793;DHT22;20105;48.764;9.178;2022-07-10T07:59:57;17.70;97.40
33793;DHT22;20105;48.764;9.178;2022-07-10T08:02:27;17.70;96.80
33793;DHT22;20105;48.764;9.178;2022-07-10T08:04:54;17.70;97.40
33793;DHT22;20105;48.764;9.178;2022-07-10T08:07:19;17.90;96.80
33793;DHT22;20105;48.764;9.178;2022-07-10T08:09:45;17.80;97.10
33793;DHT22;20105;48.764;9.178;2022-07-10T08:12:11;17.80;97.30
33793;DHT22;20105;48.764;9.178;2022-07-10T08:14:39;17.80;96.40
33793;DHT22;20105;48.764;9.178;2022-07-10T08:17:05;17.70;96.50
33793;DHT22;20105;48.764;9.178;2022-07-10T08:19:30;17.70;96.90
33793;DHT22;20105;48.764;9.178;2022-07-10T08:21:56;17.90;95.70
33793;DHT22;20105;48.764;9.178;2022-07-10T08:24:21;18.20;95.40
33793;DHT22;20105;48.764;9.178;2022-07-10T08:26:47;18.10;94.90
33793;DHT22;20105;48.764;9.178;2022-07-10T08:29:13;17.80;95.80
33793;DHT22;20105;48.764;9.178;2022-07-10T08:31:38;17.90;96.30
33793;DHT22;20105;48.764;9.178;2022-07-10T08:34:05;18.20;95.10
33793;DHT22;20105;48.764;9.178;2022-07-10T08:36:30;18.00;94.60
33793;DHT22;20105;48.764;9.178;2022-07-10T08:38:56;17.70;95.00
33793;DHT22;20105;48.764;9.178;2022-07-10T08:41:25;17.80;95.80
33793;DHT22;20105;48.764;9.178;2022-07-10T08:43:51;18.00;95.30
33793;DHT22;20105;48.764;9.178;2022-07-10T08:46:18;18.10;94.80
33793;DHT22;20105;48.764;9.178;2022-07-10T08:48:48;17.80;95.60
33793;DHT22;20105;48.764;9.178;2022-07-10T08:54:05;18.10;95.10
33793;DHT22;20105;48.764;9.178;2022-07-10T08:56:33;18.10;95.10
33793;DHT22;20105;48.764;9.178;2022-07-10T08:58:59;18.10;95.30
33793;DHT22;20105;48.764;9.178;2022-07-10T09:01:25;18.20;94.80
33793;DHT22;20105;48.764;9.178;2022-07-10T09:03:51;18.30;94.50
33793;DHT22;20105;48.764;9.178;2022-07-10T09:06:18;18.50;93.60
33793;DHT22;20105;48.764;9.178;2022-07-10T09:11:27;18.70;92.70
33793;DHT22;20105;48.764;9.178;2022-07-10T09:13:57;18.60;93.20
33793;DHT22;20105;48.764;9.178;2022-07-10T09:16:24;18.60;92.80
33793;DHT22;20105;48.764;9.178;2022-07-10T09:18:50;18.50;93.00
33793;DHT22;20105;48.764;9.178;2022-07-10T09:21:15;18.60;93.10
33793;DHT22;20105;48.764;9.178;2022-07-10T09:23:41;18.70;92.20
33793;DHT22;20105;48.764;9.178;2022-07-10T09:26:07;18.60;92.30
33793;DHT22;20105;48.764;9.178;2022-07-10T09:28:32;19.10;91.10
33793;DHT22;20105;48.764;9.178;2022-07-10T09:31:00;19.10;90.40
33793;DHT22;20105;48.764;9.178;2022-07-10T09:33:30;18.90;90.90
33793;DHT22;20105;48.764;9.178;2022-07-10T09:41:19;19.00;91.00
33793;DHT22;20105;48.764;9.178;2022-07-10T09:43:53;19.10;91.00
33793;DHT22;20105;48.764;9.178;2022-07-10T09:46:21;18.80;91.70
33793;DHT22;20105;48.764;9.178;2022-07-10T09:48:47;18.60;91.80
33793;DHT22;20105;48.764;9.178;2022-07-10T09:51:14;18.10;92.80
33793;DHT22;20105;48.764;9.178;2022-07-10T09:53:44;18.10;93.30
33793;DHT22;20105;48.764;9.178;2022-07-10T09:56:13;18.30;92.80
33793;DHT22;20105;48.764;9.178;2022-07-10T09:58:39;18.60;93.10
33793;DHT22;20105;48.764;9.178;2022-07-10T10:01:09;19.30;90.50
33793;DHT22;20105;48.764;9.178;2022-07-10T10:03:36;19.50;89.70
33793;DHT22;20105;48.764;9.178;2022-07-10T10:06:17;19.50;89.40
33793;DHT22;20105;48.764;9.178;2022-07-10T10:11:44;19.00;91.10
33793;DHT22;20105;48.764;9.178;2022-07-10T10:14:11;19.20;90.70
33793;DHT22;20105;48.764;9.178;2022-07-10T10:16:39;19.60;89.50
33793;DHT22;20105;48.764;9.178;2022-07-10T10:19:07;19.30;89.90
33793;DHT22;20105;48.764;9.178;2022-07-10T10:21:53;19.10;90.20
33793;DHT22;20105;48.764;9.178;2022-07-10T10:24:20;19.20;90.30
33793;DHT22;20105;48.764;9.178;2022-07-10T10:26:46;18.80;90.90
33793;DHT22;20105;48.764;9.178;2022-07-10T10:29:12;18.70;91.50
33793;DHT22;20105;48.764;9.178;2022-07-10T10:31:43;18.90;91.00
33793;DHT22;20105;48.764;9.178;2022-07-10T10:34:09;19.20;90.50
33793;DHT22;20105;48.764;9.178;2022-07-10T10:41:49;18.80;90.50
33793;DHT22;20105;48.764;9.178;2022-07-10T10:49:20;19.20;89.10
33793;DHT22;20105;48.764;9.178;2022-07-10T10:51:59;19.50;88.40
33793;DHT22;20105;48.764;9.178;2022-07-10T10:57:18;19.50;88.60
33793;DHT22;20105;48.764;9.178;2022-07-10T10:59:53;19.60;88.80
33793;DHT22;20105;48.764;9.178;2022-07-10T11:02:30;19.60;89.30
33793;DHT22;20105;48.764;9.178;2022-07-10T11:10:34;19.70;89.00
33793;DHT22;20105;48.764;9.178;2022-07-10T11:13:11;19.80;88.60
33793;DHT22;20105;48.764;9.178;2022-07-10T11:15:42;19.40;88.40
33793;DHT22;20105;48.764;9.178;2022-07-10T11:18:13;19.30;89.30
33793;DHT22;20105;48.764;9.178;2022-07-10T11:20:39;19.50;88.70
33793;DHT22;20105;48.764;9.178;2022-07-10T11:26:04;19.40;88.10
33793;DHT22;20105;48.764;9.178;2022-07-10T11:28:47;19.10;88.40
33793;DHT22;20105;48.764;9.178;2022-07-10T11:31:18;19.30;88.40
33793;DHT22;20105;48.764;9.178;2022-07-10T11:33:47;19.80;87.10
33793;DHT22;20105;48.764;9.178;2022-07-10T11:36:19;19.80;86.90
33793;DHT22;20105;48.764;9.178;2022-07-10T11:38:46;19.60;86.70
33793;DHT22;20105;48.764;9.178;2022-07-10T11:41:17;19.50;87.10
33793;DHT22;20105;48.764;9.178;2022-07-10T11:43:50;19.70;86.30
33793;DHT22;20105;48.764;9.178;2022-07-10T11:46:16;20.20;85.20
33793;DHT22;20105;48.764;9.178;2022-07-10T11:48:42;20.40;84.40
33793;DHT22;20105;48.764;9.178;2022-07-10T11:54:16;20.40;85.90
33793;DHT22;20105;48.764;9.178;2022-07-10T11:56:50;20.40;85.60
33793;DHT22;20105;48.764;9.178;2022-07-10T11:59:27;19.80;86.90
33793;DHT22;20105;48.764;9.178;2022-07-10T12:01:55;19.70;87.10
33793;DHT22;20105;48.764;9.178;2022-07-10T12:04:22;19.80;87.50
33793;DHT22;20105;48.764;9.178;2022-07-10T12:06:50;20.20;86.20
33793;DHT22;20105;48.764;9.178;2022-07-10T12:09:19;20.60;84.90
33793;DHT22;20105;48.764;9.178;2022-07-10T12:11:58;20.60;84.70
33793;DHT22;20105;48.764;9.178;2022-07-10T12:14:26;20.20;85.80
33793;DHT22;20105;48.764;9.178;2022-07-10T12:16:53;20.20;85.80
33793;DHT22;20105;48.764;9.178;2022-07-10T12:19:30;20.30;85.20
33793;DHT22;20105;48.764;9.178;2022-07-10T12:21:59;20.30;84.60
33793;DHT22;20105;48.764;9.178;2022-07-10T12:24:25;20.20;84.80
33793;DHT22;20105;48.764;9.178;2022-07-10T12:26:52;20.60;85.80
33793;DHT22;20105;48.764;9.178;2022-07-10T12:31:44;20.80;83.40
33793;DHT22;20105;48.764;9.178;2022-07-10T12:34:11;20.60;84.00
33793;DHT22;20105;48.764;9.178;2022-07-10T12:36:52;20.70;83.80
33793;DHT22;20105;48.764;9.178;2022-07-10T12:39:19;20.60;83.20
33793;DHT22;20105;48.764;9.178;2022-07-10T12:44:44;20.40;82.60
33793;DHT22;20105;48.764;9.178;2022-07-10T12:47:14;20.20;83.70
33793;DHT22;20105;48.764;9.178;2022-07-10T12:49:54;20.40;84.50
33793;DHT22;20105;48.764;9.178;2022-07-10T13:00:29;20.20;85.00
33793;DHT22;20105;48.764;9.178;2022-07-10T13:03:10;20.40;84.20
33793;DHT22;20105;48.764;9.178;2022-07-10T13:05:42;20.10;84.10
33793;DHT22;20105;48.764;9.178;2022-07-10T13:08:12;20.00;83.80
33793;DHT22;20105;48.764;9.178;2022-07-10T13:10:41;19.90;84.10
33793;DHT22;20105;48.764;9.178;2022-07-10T13:13:07;20.10;84.40
33793;DHT22;20105;48.764;9.178;2022-07-10T13:15:33;20.20;85.00
33793;DHT22;20105;48.764;9.178;2022-07-10T13:18:05;20.70;83.70
33793;DHT22;20105;48.764;9.178;2022-07-10T13:20:34;20.70;83.40
33793;DHT22;20105;48.764;9.178;2022-07-10T13:22:59;20.80;83.50
33793;DHT22;20105;48.764;9.178;2022-07-10T13:25:25;20.90;83.20
33793;DHT22;20105;48.764;9.178;2022-07-10T13:27:50;20.80;83.10
33793;DHT22;20105;48.764;9.178;2022-07-10T13:30:17;20.40;83.50
33793;DHT22;20105;48.764;9.178;2022-07-10T13:32:42;20.20;84.00
33793;DHT22;20105;48.764;9.178;2022-07-10T13:35:08;19.90;84.00
33793;DHT22;20105;48.764;9.178;2022-07-10T13:37:34;20.10;84.40
33793;DHT22;20105;48.764;9.178;2022-07-10T13:40:00;20.50;84.60
33793;DHT22;20105;48.764;9.178;2022-07-10T13:42:25;20.70;83.60
33793;DHT22;20105;48.764;9.178;2022-07-10T13:44:51;20.90;83.30
33793;DHT22;20105;48.764;9.178;2022-07-10T13:47:19;21.00;83.00
33793;DHT22;20105;48.764;9.178;2022-07-10T13:49:45;21.00;82.90
33793;DHT22;20105;48.764;9.178;2022-07-10T13:52:11;20.90;83.20
33793;DHT22;20105;48.764;9.178;2022-07-10T13:54:36;20.70;84.30
33793;DHT22;20105;48.764;9.178;2022-07-10T13:57:03;20.90;83.40
33793;DHT22;20105;48.764;9.178;2022-07-10T13:59:29;21.10;83.20
33793;DHT22;20105;48.764;9.178;2022-07-10T14:01:54;20.90;83.90
33793;DHT22;20105;48.764;9.178;2022-07-10T14:04:20;20.80;83.50
33793;DHT22;20105;48.764;9.178;2022-07-10T14:06:45;20.80;84.10
33793;DHT22;20105;48.764;9.178;2022-07-10T14:09:11;20.90;83.30
33793;DHT22;20105;48.764;9.178;2022-07-10T14:11:36;21.00;83.50
33793;DHT22;20105;48.764;9.178;2022-07-10T14:14:02;20.80;83.50
33793;DHT22;20105;48.764;9.178;2022-07-10T14:16:28;20.50;84.20
33793;DHT22;20105;48.764;9.178;2022-07-10T14:18:53;20.40;84.60
33793;DHT22;20105;48.764;9.178;2022-07-10T14:21:19;20.60;84.30
33793;DHT22;20105;48.764;9.178;2022-07-10T14:23:45;21.00;83.90
33793;DHT22;20105;48.764;9.178;2022-07-10T14:26:12;21.40;82.90
33793;DHT22;20105;48.764;9.178;2022-07-10T14:28:38;21.20;82.60
33793;DHT22;20105;48.764;9.178;2022-07-10T14:31:04;20.90;83.70
33793;DHT22;20105;48.764;9.178;2022-07-10T14:33:32;20.70;84.20
33793;DHT22;20105;48.764;9.178;2022-07-10T14:35:58;20.70;84.00
33793;DHT22;20105;48.764;9.178;2022-07-10T14:38:25;20.90;84.00
33793;DHT22;20105;48.764;9.178;2022-07-10T14:40:51;21.50;82.50
33793;DHT22;20105;48.764;9.178;2022-07-10T14:43:21;21.40;82.40
33793;DHT22;20105;48.764;9.178;2022-07-10T14:45:49;21.00;83.20
33793;DHT22;20105;48.764;9.178;2022-07-10T14:48:14;21.30;83.00
33793;DHT22;20105;48.764;9.178;2022-07-10T14:50:40;21.90;81.70
33793;DHT22;20105;48.764;9.178;2022-07-10T14:53:06;22.60;80.60
33793;DHT22;20105;48.764;9.178;2022-07-10T14:55:33;22.50;80.40
33793;DHT22;20105;48.764;9.178;2022-07-10T14:57:58;22.00;81.30
33793;DHT22;20105;48.764;9.178;2022-07-10T15:00:23;21.70;81.60
33793;DHT22;20105;48.764;9.178;2022-07-10T15:02:53;22.00;81.20
33793;DHT22;20105;48.764;9.178;2022-07-10T15:05:19;22.20;81.10
33793;DHT22;20105;48.764;9.178;2022-07-10T15:07:44;22.50;80.40
33793;DHT22;20105;48.764;9.178;2022-07-10T15:10:11;22.70;79.90
33793;DHT22;20105;48.764;9.178;2022-07-10T15:12:38;22.60;79.60
33793;DHT22;20105;48.764;9.178;2022-07-10T15:15:07;22.10;80.20
33793;DHT22;20105;48.764;9.178;2022-07-10T15:17:34;21.80;80.80
33793;DHT22;20105;48.764;9.178;2022-07-10T15:20:20;22.20;80.90
33793;DHT22;20105;48.764;9.178;2022-07-10T15:22:46;22.60;80.10
33793;DHT22;20105;48.764;9.178;2022-07-10T15:25:12;23.00;79.40
33793;DHT22;20105;48.764;9.178;2022-07-10T15:27:38;23.50;78.40
33793;DHT22;20105;48.764;9.178;2022-07-10T15:30:05;23.40;78.40
33793;DHT22;20105;48.764;9.178;2022-07-10T15:32:41;23.40;78.50
33793;DHT22;20105;48.764;9.178;2022-07-10T15:35:07;23.40;78.40
33793;DHT22;20105;48.764;9.178;2022-07-10T15:37:33;23.80;77.80
33793;DHT22;20105;48.764;9.178;2022-07-10T15:39:59;23.50;77.90
33793;DHT22;20105;48.764;9.178;2022-07-10T15:42:24;23.50;78.00
33793;DHT22;20105;48.764;9.178;2022-07-10T15:44:50;23.60;77.80
33793;DHT22;20105;48.764;9.178;2022-07-10T15:47:19;23.80;77.50
33793;DHT22;20105;48.764;9.178;2022-07-10T15:49:45;23.70;77.50
33793;DHT22;20105;48.764;9.178;2022-07-10T15:52:10;23.80;77.00
33793;DHT22;20105;48.764;9.178;2022-07-10T15:54:36;23.90;77.10
33793;DHT22;20105;48.764;9.178;2022-07-10T15:57:02;23.90;77.10
33793;DHT22;20105;48.764;9.178;2022-07-10T15:59:28;24.10;77.30
33793;DHT22;20105;48.764;9.178;2022-07-10T16:01:55;24.60;76.60
33793;DHT22;20105;48.764;9.178;2022-07-10T16:04:22;24.60;76.20
33793;DHT22;20105;48.764;9.178;2022-07-10T16:06:52;25.20;75.60
33793;DHT22;20105;48.764;9.178;2022-07-10T16:09:24;25.00;75.50
33793;DHT22;20105;48.764;9.178;2022-07-10T16:11:50;24.90;76.10
33793;DHT22;20105;48.764;9.178;2022-07-10T16:14:18;25.30;75.60
33793;DHT22;20105;48.764;9.178;2022-07-10T16:16:44;25.00;75.90
33793;DHT22;20105;48.764;9.178;2022-07-10T16:19:11;25.00;76.30
33793;DHT22;20105;48.764;9.178;2022-07-10T16:21:36;25.10;76.10
33793;DHT22;20105;48.764;9.178;2022-07-10T16:24:04;25.00;75.80